Terminal Aerodrome Forecast
Issued by NWS

Home | Current Version | Previous Version | Text Only | Print | Product List | Glossary Off
Versions: 1 2 3 4 5 6 7 8 9 10 11 12 13 14 15 16 17 18

724
FTUS43 KFGF 200544
TAFBJI
TAF
KBJI 200544Z 2006/2106 03009KT 4SM -SN OVC025
     FM200800 02009KT 1SM -SN OVC035
     FM201200 01008KT 1 1/2SM -SN OVC030
     FM201400 36008KT 3SM -SN OVC035
     FM201700 34008KT P6SM OVC035
     FM201900 33009KT P6SM -SN OVC025
     FM210400 28007KT P6SM BKN040=

USA.gov is the U.S. government's official web portal to all federal, state and local government web resources and services.